Time;durP1;ratioP1;P1;durP2;ratioP2;P2;SDS_P1;SDS_P2;PMS_P1;PMS_P2;Temp;Humidity;BMP_temperature;BMP_pressure;BME280_temperature;BME280_humidity;BME280_pressure;Samples;Min_cycle;Max_cycle;Signal;HPM_P1;HPM_P2
2021/12/25 00:01:05;;;;;;;12.48;6.85;;;;;;;5.25;99.21;97647.47;4495445;31;20128;-76
2021/12/25 00:03:33;;;;;;;12.45;6.82;;;;;;;5.21;99.17;97644.34;4500669;31;20139;-76
2021/12/25 00:06:00;;;;;;;12.50;6.97;;;;;;;5.08;99.77;97646.31;4500755;31;20433;-76
2021/12/25 00:08:28;;;;;;;13.02;7.20;;;;;;;5.02;100.00;97642.47;4500640;31;20092;-76
2021/12/25 00:10:57;;;;;;;13.35;7.45;;;;;;;5.08;100.00;97635.94;4500584;31;20145;-75
2021/12/25 00:13:24;;;;;;;12.90;6.75;;;;;;;5.17;99.25;97645.53;4500465;31;20381;-76
2021/12/25 00:15:52;;;;;;;12.45;6.57;;;;;;;5.05;99.68;97641.41;4500410;31;20083;-76
2021/12/25 00:18:20;;;;;;;12.68;7.28;;;;;;;5.11;99.24;97659.84;4500539;31;20100;-76
2021/12/25 00:20:47;;;;;;;11.55;6.90;;;;;;;5.17;98.68;97655.94;4500419;31;20426;-76
2021/12/25 00:23:21;;;;;;;12.55;6.90;;;;;;;5.27;98.07;97663.78;4500683;31;20099;-76
2021/12/25 00:25:55;;;;;;;14.05;7.72;;;;;;;5.15;98.46;97656.06;4500259;31;20084;-76
2021/12/25 00:36:15;;;;;;;14.70;8.10;;;;;;;4.90;100.00;97659.09;4502612;31;20102;-76
2021/12/25 00:38:43;;;;;;;14.35;7.40;;;;;;;4.92;100.00;97662.34;4502090;31;20110;-76
2021/12/25 00:41:12;;;;;;;15.10;8.25;;;;;;;4.96;99.91;97663.75;4502134;31;20083;-76
2021/12/25 00:43:39;;;;;;;13.95;7.03;;;;;;;4.93;100.00;97661.41;4502502;31;20111;-76
2021/12/25 00:46:07;;;;;;;15.48;8.65;;;;;;;4.96;99.89;97664.56;4501928;31;20114;-76
2021/12/25 00:48:34;;;;;;;17.17;8.00;;;;;;;4.96;99.77;97666.34;4502206;31;20110;-76
2021/12/25 00:51:02;;;;;;;9.73;5.95;;;;;;;4.95;100.00;97675.06;4502177;31;20087;-76
2021/12/25 00:53:30;;;;;;;14.00;7.05;;;;;;;5.07;99.10;97666.28;4502186;31;20180;-75
2021/12/25 00:55:57;;;;;;;13.52;7.47;;;;;;;5.06;98.51;97669.81;4501846;31;20574;-75
2021/12/25 00:58:24;;;;;;;15.02;7.03;;;;;;;5.09;98.13;97664.38;4502055;31;20095;-75
2021/12/25 01:00:52;;;;;;;14.98;7.50;;;;;;;5.08;98.18;97673.09;4492444;31;20088;-75
2021/12/25 01:03:19;;;;;;;11.25;6.80;;;;;;;5.12;98.15;97669.31;4486475;31;20632;-76
2021/12/25 01:05:47;;;;;;;14.38;7.07;;;;;;;5.10;98.39;97672.97;4486309;31;20597;-75
2021/12/25 01:08:15;;;;;;;14.02;7.00;;;;;;;5.13;97.96;97681.34;4486214;32;20092;-76
2021/12/25 01:10:43;;;;;;;11.70;6.55;;;;;;;5.20;97.56;97681.63;4486424;31;20147;-75
2021/12/25 01:13:16;;;;;;;15.20;6.87;;;;;;;5.16;97.48;97680.25;4486153;31;20096;-75
2021/12/25 01:48:22;;;;;;;15.20;5.97;;;;;;;5.36;96.85;97709.72;4467926;32;20508;-75
2021/12/25 01:50:49;;;;;;;10.70;5.90;;;;;;;5.37;96.28;97711.34;4467585;32;20128;-76
2021/12/25 01:53:17;;;;;;;10.73;5.65;;;;;;;5.40;96.24;97703.31;4468039;32;20146;-76
2021/12/25 01:55:45;;;;;;;15.27;5.82;;;;;;;5.36;96.19;97706.28;4451886;32;511728;-75
2021/12/25 01:58:12;;;;;;;10.38;6.32;;;;;;;5.43;95.99;97708.22;4467805;32;20159;-75
2021/12/25 02:00:47;;;;;;;11.32;5.87;;;;;;;5.44;95.35;97711.66;4467797;32;20089;-76
2021/12/25 02:03:18;;;;;;;11.40;6.35;;;;;;;5.34;95.76;97703.81;4467465;32;20140;-75
2021/12/25 02:05:45;;;;;;;11.07;6.00;;;;;;;5.50;95.00;97692.97;4467409;32;20549;-76
2021/12/25 02:08:22;;;;;;;8.27;5.12;;;;;;;5.55;94.37;97705.56;4467755;32;20470;-75
2021/12/25 02:10:51;;;;;;;8.48;5.20;;;;;;;5.50;94.39;97688.59;4467646;32;20105;-75
2021/12/25 02:13:19;;;;;;;9.10;4.53;;;;;;;5.63;93.64;97688.34;4467602;32;20116;-75
2021/12/25 02:15:51;;;;;;;13.88;5.47;;;;;;;5.67;92.80;97694.91;4467261;32;20105;-75
2021/12/25 02:21:10;;;;;;;9.27;5.20;;;;;;;5.85;92.02;97681.28;4501647;31;20096;-75
2021/12/25 02:23:38;;;;;;;14.57;5.10;;;;;;;5.93;90.78;97691.81;4501508;31;20084;-75
2021/12/25 02:26:06;;;;;;;14.90;4.68;;;;;;;5.99;90.10;97690.50;4501312;31;20449;-76
2021/12/25 02:28:34;;;;;;;7.53;4.37;;;;;;;6.02;90.25;97688.44;4501544;31;20088;-75
2021/12/25 02:31:06;;;;;;;9.48;5.22;;;;;;;6.01;90.46;97691.19;4501256;31;20096;-76
2021/12/25 02:33:33;;;;;;;9.60;4.97;;;;;;;5.98;90.93;97691.44;4501283;31;20530;-76
2021/12/25 02:36:00;;;;;;;9.00;4.55;;;;;;;5.95;91.50;97678.69;4501271;31;20119;-75
2021/12/25 02:38:28;;;;;;;9.50;4.53;;;;;;;5.98;91.52;97681.06;4501444;31;20095;-75
2021/12/25 02:40:56;;;;;;;9.35;4.37;;;;;;;6.04;91.30;97686.56;4501286;31;20494;-76
2021/12/25 02:43:23;;;;;;;7.68;4.18;;;;;;;6.04;91.12;97681.34;4501591;31;20127;-75
2021/12/25 02:45:54;;;;;;;10.38;4.45;;;;;;;5.96;91.32;97683.75;4501483;31;20104;-76
2021/12/25 02:48:23;;;;;;;9.63;4.43;;;;;;;5.79;91.83;97685.25;4501210;31;20084;-75
2021/12/25 02:50:50;;;;;;;10.45;4.35;;;;;;;5.68;93.49;97680.97;4501119;31;20080;-76
2021/12/25 02:53:18;;;;;;;8.32;4.93;;;;;;;5.57;93.36;97691.50;4501309;31;20183;-75
2021/12/25 02:55:46;;;;;;;8.85;4.60;;;;;;;5.47;93.38;97682.84;4500877;31;20100;-75
2021/12/25 02:58:14;;;;;;;6.57;4.25;;;;;;;5.42;93.71;97693.63;4500720;31;20445;-75
2021/12/25 03:00:44;;;;;;;7.95;5.03;;;;;;;5.39;93.47;97680.91;4493029;31;20127;-75
2021/12/25 03:03:11;;;;;;;9.30;4.50;;;;;;;5.53;92.80;97682.31;4485072;31;20092;-75
2021/12/25 03:05:39;;;;;;;7.53;4.22;;;;;;;5.43;92.91;97671.06;4485497;31;20451;-75
2021/12/25 03:08:08;;;;;;;8.57;4.68;;;;;;;5.41;92.85;97675.56;4485225;31;20091;-75
2021/12/25 03:10:38;;;;;;;8.40;4.43;;;;;;;5.44;92.60;97663.13;4485611;31;20099;-76
2021/12/25 03:15:46;;;;;;;6.55;3.92;;;;;;;5.37;92.73;97669.81;4482440;31;20148;-76
2021/12/25 03:18:14;;;;;;;8.57;4.50;;;;;;;4.98;91.36;97674.81;4494987;31;20095;-75
2021/12/25 03:20:46;;;;;;;10.00;4.68;;;;;;;4.69;93.01;97674.66;4501061;31;20088;-75
2021/12/25 03:23:19;;;;;;;8.80;4.60;;;;;;;4.70;94.89;97678.91;4501061;31;20149;-75
2021/12/25 03:25:47;;;;;;;10.32;4.78;;;;;;;4.72;95.13;97679.59;4501072;31;20608;-75
2021/12/25 03:28:16;;;;;;;8.70;4.90;;;;;;;4.57;95.30;97681.69;4501237;31;20105;-75
2021/12/25 03:30:44;;;;;;;9.85;4.32;;;;;;;4.42;95.97;97679.41;4501125;31;20437;-75
2021/12/25 03:33:14;;;;;;;10.15;5.22;;;;;;;4.31;96.73;97681.22;4499784;31;20100;-75
2021/12/25 03:35:42;;;;;;;9.95;4.80;;;;;;;4.17;98.26;97672.78;4501010;31;20480;-75
2021/12/25 03:38:12;;;;;;;9.45;5.30;;;;;;;4.23;99.26;97684.44;4500601;31;20148;-75
2021/12/25 03:40:40;;;;;;;11.73;5.57;;;;;;;4.38;97.82;97680.59;4501052;31;20429;-75
2021/12/25 03:43:08;;;;;;;10.10;5.40;;;;;;;4.43;98.10;97685.41;4500859;31;20093;-75
2021/12/25 03:45:35;;;;;;;13.35;5.47;;;;;;;4.44;98.62;97695.66;4501074;31;20092;-75
2021/12/25 03:48:12;;;;;;;11.80;5.65;;;;;;;4.50;98.52;97689.16;4500957;31;20478;-75
2021/12/25 03:58:54;;;;;;;10.77;5.62;;;;;;;4.66;98.35;97719.84;4500673;31;21243;-75
2021/12/25 04:06:28;;;;;;;13.95;6.10;;;;;;;4.64;98.01;97726.12;4500811;31;20080;-75
2021/12/25 04:08:57;;;;;;;12.10;6.30;;;;;;;4.60;98.34;97731.56;4499169;31;20159;-75
2021/12/25 04:11:31;;;;;;;12.02;6.25;;;;;;;4.61;98.67;97738.37;4500554;31;20107;-75
2021/12/25 04:14:00;;;;;;;12.07;5.75;;;;;;;4.66;98.79;97735.41;4500669;31;20095;-75
2021/12/25 04:16:27;;;;;;;9.50;5.97;;;;;;;4.71;98.19;97728.06;4500615;31;20096;-75
2021/12/25 04:18:55;;;;;;;10.95;5.95;;;;;;;4.69;98.02;97734.34;4500657;31;20119;-75
2021/12/25 04:21:24;;;;;;;13.82;7.32;;;;;;;4.69;98.26;97727.34;4500781;31;20454;-75
2021/12/25 04:23:51;;;;;;;12.93;5.97;;;;;;;4.75;98.43;97736.41;4500363;31;20128;-75
2021/12/25 04:26:20;;;;;;;11.43;5.62;;;;;;;4.92;98.00;97745.41;4500424;31;20084;-75
2021/12/25 04:32:03;;;;;;;10.55;5.53;;;;;;;4.88;97.64;97729.28;4466573;32;20197;-75
2021/12/25 04:42:54;;;;;;;9.43;5.15;;;;;;;5.08;96.37;97699.06;4466406;32;20611;-75
2021/12/25 05:06:50;;;;;;;6.90;3.95;;;;;;;4.96;97.10;97700.09;4466288;32;20128;-75
2021/12/25 05:09:17;;;;;;;8.52;4.57;;;;;;;4.88;97.24;97703.31;4489096;31;20113;-75
2021/12/25 05:11:45;;;;;;;5.75;3.33;;;;;;;4.91;97.28;97705.66;4499992;31;20828;-75
2021/12/25 05:14:13;;;;;;;6.82;3.62;;;;;;;4.84;97.08;97701.94;4499870;31;20148;-75
2021/12/25 05:16:41;;;;;;;5.87;3.47;;;;;;;4.92;96.91;97703.88;4495881;31;20519;-75
2021/12/25 05:19:08;;;;;;;8.07;3.95;;;;;;;4.79;96.86;97689.34;4492351;31;20091;-75
2021/12/25 05:21:36;;;;;;;7.18;4.05;;;;;;;4.78;96.63;97700.69;4501408;31;20155;-75
2021/12/25 05:24:05;;;;;;;8.23;4.45;;;;;;;4.67;97.63;97705.09;4501839;31;20112;-75
2021/12/25 05:26:33;;;;;;;7.70;4.18;;;;;;;4.59;98.20;97708.34;4502011;31;20480;-75
2021/12/25 05:29:02;;;;;;;6.97;3.37;;;;;;;4.61;97.85;97722.81;4502087;31;20167;-75
2021/12/25 05:31:32;;;;;;;6.65;3.72;;;;;;;4.55;97.68;97714.72;4502169;31;20092;-75
2021/12/25 05:34:00;;;;;;;4.82;3.00;;;;;;;4.55;97.54;97705.16;4501891;31;20110;-75
2021/12/25 05:36:28;;;;;;;7.55;3.42;;;;;;;4.51;97.88;97702.94;4502061;31;20103;-75
2021/12/25 05:38:59;;;;;;;6.72;3.58;;;;;;;4.58;98.03;97706.69;4501795;31;20118;-75
2021/12/25 05:41:28;;;;;;;6.18;3.40;;;;;;;4.65;97.92;97705.22;4502101;31;20096;-75
2021/12/25 05:43:56;;;;;;;7.22;3.62;;;;;;;4.70;97.51;97708.25;4501811;31;20088;-75
2021/12/25 05:46:24;;;;;;;7.87;3.90;;;;;;;4.81;97.03;97712.56;4501886;31;20197;-75
2021/12/25 05:48:52;;;;;;;8.48;3.80;;;;;;;4.76;97.01;97714.72;4501608;31;20096;-75
2021/12/25 05:51:25;;;;;;;6.25;3.45;;;;;;;4.76;97.21;97712.94;4501918;31;20865;-75
2021/12/25 05:53:53;;;;;;;5.62;3.25;;;;;;;4.75;97.16;97708.72;4501615;31;20521;-75
2021/12/25 05:56:36;;;;;;;8.00;3.77;;;;;;;4.72;96.90;97703.75;4501704;31;20412;-75
2021/12/25 05:59:07;;;;;;;5.95;3.45;;;;;;;4.68;96.60;97702.38;4501601;31;20147;-75
2021/12/25 06:01:34;;;;;;;5.05;3.15;;;;;;;4.59;97.12;97703.97;4501509;31;20114;-75
2021/12/25 06:04:02;;;;;;;7.37;3.87;;;;;;;4.42;98.11;97707.94;4501686;31;20092;-75
2021/12/25 06:06:30;;;;;;;9.45;6.00;;;;;;;4.41;98.65;97710.66;4501671;31;20119;-75
2021/12/25 06:08:58;;;;;;;16.62;7.95;;;;;;;4.21;99.08;97725.19;4501402;31;20156;-75
2021/12/25 06:11:25;;;;;;;16.00;9.00;;;;;;;3.75;100.00;97728.84;4501587;31;20138;-75
2021/12/25 06:14:05;;;;;;;10.23;6.10;;;;;;;3.72;100.00;97741.12;4501317;31;20096;-75
2021/12/25 06:16:33;;;;;;;12.55;6.18;;;;;;;3.55;100.00;97742.38;4501940;31;20084;-75
2021/12/25 06:19:00;;;;;;;20.27;7.18;;;;;;;3.38;100.00;97727.34;4501247;31;20108;-75
2021/12/25 06:21:27;;;;;;;14.05;6.55;;;;;;;3.32;100.00;97733.81;4501728;31;20115;-75
2021/12/25 06:23:56;;;;;;;15.15;6.37;;;;;;;3.37;100.00;97749.81;4501679;31;20123;-75
2021/12/25 06:26:35;;;;;;;12.00;6.28;;;;;;;3.43;100.00;97750.28;4501423;31;20133;-75
2021/12/25 06:29:03;;;;;;;11.30;5.80;;;;;;;3.40;100.00;97745.34;4501306;31;20162;-75
2021/12/25 06:31:31;;;;;;;11.05;5.15;;;;;;;3.34;100.00;97755.22;4500857;31;20124;-75
2021/12/25 06:33:59;;;;;;;8.63;4.95;;;;;;;3.42;100.00;97774.53;4501031;31;20080;-75
2021/12/25 06:36:27;;;;;;;11.18;4.93;;;;;;;3.60;100.00;97770.53;4501186;31;20488;-75
2021/12/25 06:38:55;;;;;;;9.25;4.53;;;;;;;3.65;100.00;97771.00;4501420;31;20608;-75
2021/12/25 06:41:22;;;;;;;7.37;3.92;;;;;;;3.49;100.00;97762.75;4501632;31;20359;-75
2021/12/25 06:43:50;;;;;;;12.57;4.93;;;;;;;3.40;100.00;97774.66;4501067;31;20120;-75
2021/12/25 06:46:19;;;;;;;10.15;5.68;;;;;;;3.31;100.00;97783.91;4501579;31;20469;-75
2021/12/25 06:48:46;;;;;;;13.93;6.72;;;;;;;3.22;100.00;97776.03;4501343;31;20168;-75
2021/12/25 06:51:16;;;;;;;15.27;7.62;;;;;;;3.13;100.00;97780.12;4501195;31;20107;-75
2021/12/25 06:53:43;;;;;;;12.37;6.87;;;;;;;3.12;100.00;97784.50;4501516;31;20142;-75
2021/12/25 06:56:10;;;;;;;12.45;6.62;;;;;;;3.10;100.00;97780.38;4501237;31;20168;-75
2021/12/25 06:58:39;;;;;;;12.25;5.87;;;;;;;3.11;100.00;97777.66;4501169;31;20115;-75
2021/12/25 07:01:06;;;;;;;9.52;6.22;;;;;;;3.08;100.00;97788.25;4500934;31;20170;-75
2021/12/25 07:03:34;;;;;;;14.65;7.75;;;;;;;3.11;100.00;97788.00;4501037;31;20180;-75
2021/12/25 07:06:11;;;;;;;13.95;7.10;;;;;;;3.10;100.00;97790.72;4501473;31;20100;-75
2021/12/25 07:08:41;;;;;;;13.45;7.03;;;;;;;3.22;100.00;97796.75;4500991;31;20091;-75
2021/12/25 07:11:10;;;;;;;13.68;7.65;;;;;;;3.14;100.00;97797.31;4501334;31;20122;-75
2021/12/25 07:13:37;;;;;;;11.90;6.75;;;;;;;3.17;100.00;97797.09;4501074;31;20092;-75
2021/12/25 07:16:07;;;;;;;12.65;6.95;;;;;;;3.20;100.00;97802.03;4501313;31;20100;-75
2021/12/25 07:18:35;;;;;;;14.18;7.10;;;;;;;3.28;100.00;97807.44;4501246;31;20142;-75
2021/12/25 07:21:04;;;;;;;15.25;7.30;;;;;;;3.33;100.00;97802.78;4500840;31;20472;-75
2021/12/25 07:23:33;;;;;;;13.55;6.75;;;;;;;3.43;100.00;97802.88;4501388;31;20160;-75
2021/12/25 07:26:01;;;;;;;11.12;6.85;;;;;;;3.51;100.00;97802.31;4501098;31;20096;-75
2021/12/25 07:28:29;;;;;;;14.77;7.15;;;;;;;3.53;100.00;97803.84;4501247;31;20118;-75
2021/12/25 07:30:58;;;;;;;12.68;7.00;;;;;;;3.65;100.00;97801.25;4500900;31;20499;-75
2021/12/25 07:33:25;;;;;;;11.82;7.10;;;;;;;3.67;100.00;97805.37;4500870;31;20755;-75
2021/12/25 07:35:53;;;;;;;14.13;6.90;;;;;;;3.83;100.00;97810.22;4500935;31;20092;-75
2021/12/25 07:38:21;;;;;;;11.43;6.35;;;;;;;4.03;100.00;97813.84;4500761;31;20110;-75
2021/12/25 07:40:48;;;;;;;11.77;6.90;;;;;;;4.02;100.00;97809.59;4500747;31;20149;-75
2021/12/25 07:43:17;;;;;;;10.20;6.35;;;;;;;4.17;100.00;97807.59;4500793;31;20112;-75
2021/12/25 07:45:52;;;;;;;9.55;5.45;;;;;;;4.29;100.00;97821.34;4501151;31;20092;-75
2021/12/25 07:48:20;;;;;;;9.32;5.65;;;;;;;4.46;100.00;97816.59;4500966;31;20091;-75
2021/12/25 07:50:52;;;;;;;12.60;6.25;;;;;;;4.54;100.00;97819.41;4500681;31;20123;-75
2021/12/25 07:53:20;;;;;;;8.68;5.25;;;;;;;4.72;100.00;97812.72;4500968;31;20083;-75
2021/12/25 07:55:48;;;;;;;9.40;4.55;;;;;;;4.67;100.00;97817.47;4500708;31;20127;-75
2021/12/25 07:58:16;;;;;;;8.60;5.10;;;;;;;4.88;100.00;97820.09;4500836;31;20104;-75
2021/12/25 08:00:44;;;;;;;7.70;4.15;;;;;;;5.03;100.00;97812.03;4492047;31;20096;-75
2021/12/25 08:03:12;;;;;;;8.75;4.25;;;;;;;5.12;99.73;97813.87;4484838;31;20091;-75
2021/12/25 08:05:39;;;;;;;8.07;4.15;;;;;;;5.10;99.98;97816.59;4484716;31;20088;-75
2021/12/25 08:08:07;;;;;;;10.25;4.25;;;;;;;5.07;100.00;97818.59;4484841;31;20812;-75
2021/12/25 08:10:35;;;;;;;8.13;4.65;;;;;;;5.12;100.00;97809.50;4484669;31;20080;-75
2021/12/25 08:13:02;;;;;;;9.70;3.85;;;;;;;5.25;100.00;97805.87;4484790;31;20092;-75
2021/12/25 08:15:30;;;;;;;7.05;4.18;;;;;;;5.29;100.00;97813.28;4484724;31;20121;-75
2021/12/25 08:18:00;;;;;;;7.82;4.97;;;;;;;5.51;100.00;97814.09;4484668;31;20123;-75
2021/12/25 08:20:38;;;;;;;7.75;3.95;;;;;;;5.54;100.00;97819.03;4484917;31;20096;-75
2021/12/25 08:23:16;;;;;;;6.32;3.75;;;;;;;5.62;100.00;97813.19;4484885;31;20100;-75
2021/12/25 08:25:48;;;;;;;6.28;3.62;;;;;;;5.66;100.00;97817.16;4484705;31;20101;-75
2021/12/25 08:28:20;;;;;;;7.72;4.78;;;;;;;5.73;100.00;97818.31;4484764;31;20146;-76
2021/12/25 08:30:50;;;;;;;7.15;4.40;;;;;;;5.74;100.00;97813.91;4484695;31;20126;-75
2021/12/25 08:33:20;;;;;;;9.25;5.05;;;;;;;5.86;99.57;97818.91;4484579;31;20072;-75
2021/12/25 08:35:51;;;;;;;7.93;4.72;;;;;;;5.96;99.37;97808.53;4484749;31;20089;-75
2021/12/25 08:38:21;;;;;;;9.10;4.35;;;;;;;6.03;99.45;97801.06;4484357;31;20518;-75
2021/12/25 08:40:53;;;;;;;7.15;4.22;;;;;;;6.24;97.95;97794.94;4484281;31;20153;-75
2021/12/25 08:43:24;;;;;;;8.00;4.50;;;;;;;6.36;97.42;97793.91;4484587;31;20495;-75
2021/12/25 08:46:10;;;;;;;8.27;4.45;;;;;;;6.52;96.68;97783.78;4484372;31;20117;-75
2021/12/25 08:48:38;;;;;;;8.60;4.50;;;;;;;6.54;95.49;97786.22;4484271;31;20175;-75
2021/12/25 08:51:05;;;;;;;9.73;4.95;;;;;;;6.61;96.19;97781.31;4484068;32;20095;-75
2021/12/25 08:53:33;;;;;;;10.15;4.70;;;;;;;6.61;96.34;97783.94;4483015;32;20088;-76
2021/12/25 08:56:00;;;;;;;7.93;4.93;;;;;;;6.83;95.24;97775.00;4484964;31;20119;-75
2021/12/25 08:58:30;;;;;;;9.75;5.65;;;;;;;6.79;94.98;97758.84;4486336;31;20092;-76
2021/12/25 09:01:01;;;;;;;11.50;6.75;;;;;;;6.92;94.73;97764.59;4496159;31;20118;-76
2021/12/25 09:03:30;;;;;;;10.02;6.18;;;;;;;7.18;93.81;97773.63;4502026;31;20092;-75
2021/12/25 09:06:00;;;;;;;12.27;6.68;;;;;;;7.28;94.02;97793.47;4501768;31;20164;-76
2021/12/25 09:08:28;;;;;;;12.55;6.50;;;;;;;7.24;93.08;97794.72;4501929;31;20107;-76
2021/12/25 09:10:56;;;;;;;9.07;5.07;;;;;;;7.34;92.95;97793.88;4502175;31;20099;-75
2021/12/25 09:13:23;;;;;;;7.32;4.18;;;;;;;7.55;92.45;97814.53;4501941;31;20186;-76
2021/12/25 09:15:50;;;;;;;6.03;3.55;;;;;;;7.80;91.00;97794.81;4501821;31;20116;-75
2021/12/25 09:18:18;;;;;;;6.15;3.60;;;;;;;7.94;88.77;97790.91;4502036;31;20156;-76
2021/12/25 09:20:45;;;;;;;8.70;3.92;;;;;;;8.18;88.12;97787.78;4500496;31;20088;-76
2021/12/25 09:23:12;;;;;;;6.55;3.53;;;;;;;8.33;87.27;97781.09;4501926;31;20088;-75
2021/12/25 09:25:40;;;;;;;6.10;3.58;;;;;;;8.55;86.82;97778.22;4501897;31;20096;-76
2021/12/25 09:28:07;;;;;;;5.47;3.53;;;;;;;8.68;86.15;97778.69;4501933;31;20085;-76
2021/12/25 09:30:36;;;;;;;6.00;3.47;;;;;;;8.87;85.82;97778.53;4501691;31;20096;-76
2021/12/25 09:33:04;;;;;;;8.77;4.93;;;;;;;8.99;84.61;97776.50;4501694;31;20634;-76
2021/12/25 09:35:31;;;;;;;11.90;6.18;;;;;;;9.09;84.08;97784.25;4501863;31;20092;-76
2021/12/25 09:37:58;;;;;;;11.57;6.90;;;;;;;9.15;84.22;97774.97;4501678;31;20164;-76
2021/12/25 09:40:26;;;;;;;12.02;6.28;;;;;;;9.34;83.57;97769.56;4501747;31;20487;-76
2021/12/25 09:42:55;;;;;;;9.13;4.85;;;;;;;9.45;83.27;97765.03;4501835;31;20091;-76
2021/12/25 09:45:22;;;;;;;6.97;4.65;;;;;;;9.46;83.35;97774.50;4501682;31;20104;-76
2021/12/25 09:47:50;;;;;;;8.13;4.70;;;;;;;9.50;82.39;97775.84;4501625;31;20524;-76
2021/12/25 09:50:18;;;;;;;6.37;4.28;;;;;;;9.55;82.81;97766.56;4501679;31;20104;-76
2021/12/25 09:52:45;;;;;;;7.53;3.35;;;;;;;9.45;83.17;97775.47;4501531;31;20164;-76
2021/12/25 09:55:14;;;;;;;3.97;2.78;;;;;;;9.34;83.55;97769.56;4501772;31;20118;-75
2021/12/25 09:57:41;;;;;;;6.12;3.12;;;;;;;9.30;84.59;97772.62;4501705;31;20076;-76
2021/12/25 10:00:15;;;;;;;6.07;3.60;;;;;;;9.30;84.36;97760.37;4497032;31;20088;-76
2021/12/25 10:02:51;;;;;;;5.00;3.53;;;;;;;9.45;83.80;97758.00;4485820;31;20091;-76
2021/12/25 10:05:32;;;;;;;8.45;4.12;;;;;;;9.47;82.75;97765.72;4485857;31;20627;-76
2021/12/25 10:08:13;;;;;;;8.13;4.75;;;;;;;9.58;83.57;97763.66;4484659;31;20122;-76
2021/12/25 10:10:45;;;;;;;10.65;5.57;;;;;;;9.86;81.54;97773.09;4486193;31;20374;-76
2021/12/25 10:13:28;;;;;;;15.25;8.80;;;;;;;9.80;82.91;97771.91;4485558;32;20112;-76
2021/12/25 10:16:17;;;;;;;10.35;6.32;;;;;;;10.04;82.92;97776.44;4484582;32;20119;-76
2021/12/25 10:18:45;;;;;;;13.05;5.68;;;;;;;10.18;80.96;97766.34;4485792;31;20112;-76
2021/12/25 10:21:17;;;;;;;5.93;3.55;;;;;;;10.35;79.09;97762.78;4485781;31;20092;-76
2021/12/25 10:23:45;;;;;;;7.95;4.95;;;;;;;10.50;78.25;97772.66;4485599;31;20089;-76
2021/12/25 10:26:21;;;;;;;7.93;4.65;;;;;;;10.64;78.10;97766.75;4485752;31;20084;-76
2021/12/25 10:28:49;;;;;;;6.72;4.10;;;;;;;10.62;78.60;97764.31;4485717;31;20101;-76
2021/12/25 10:31:17;;;;;;;8.15;4.90;;;;;;;10.59;78.39;97769.06;4484364;32;20111;-76
2021/12/25 10:33:50;;;;;;;10.45;6.53;;;;;;;10.67;78.83;97771.69;4485449;31;20161;-76
2021/12/25 10:36:27;;;;;;;8.88;4.68;;;;;;;10.57;77.92;97766.59;4485608;31;20443;-76
2021/12/25 10:38:57;;;;;;;6.32;3.47;;;;;;;10.56;77.74;97758.91;4485665;31;20077;-76
2021/12/25 10:41:24;;;;;;;9.35;5.30;;;;;;;10.43;76.38;97765.44;4485456;31;20111;-76
2021/12/25 10:44:10;;;;;;;7.15;4.05;;;;;;;10.28;78.24;97753.94;4485534;31;20088;-76
2021/12/25 10:46:48;;;;;;;4.35;2.47;;;;;;;10.32;77.71;97747.38;4485464;31;20079;-76
2021/12/25 10:49:16;;;;;;;3.85;2.50;;;;;;;10.19;77.04;97753.09;4485666;31;20532;-76
2021/12/25 10:51:44;;;;;;;5.72;3.22;;;;;;;10.12;77.35;97758.13;4485362;31;20100;-76
2021/12/25 10:54:13;;;;;;;6.07;3.65;;;;;;;9.99;78.06;97751.72;4485605;31;20092;-76
2021/12/25 10:56:43;;;;;;;3.03;2.42;;;;;;;9.89;78.92;97747.44;4485413;31;20093;-76
2021/12/25 10:59:13;;;;;;;3.10;1.83;;;;;;;9.89;79.14;97747.44;4485532;31;20091;-76
2021/12/25 11:01:48;;;;;;;5.45;2.10;;;;;;;10.00;77.36;97733.22;4500096;31;20084;-76
2021/12/25 11:04:25;;;;;;;3.50;2.17;;;;;;;10.00;77.57;97735.84;4501124;31;20504;-76
2021/12/25 11:06:53;;;;;;;5.30;2.58;;;;;;;10.09;77.04;97740.13;4501114;31;20393;-76
2021/12/25 11:09:20;;;;;;;3.67;2.10;;;;;;;10.06;77.59;97735.22;4501253;31;20100;-76
2021/12/25 11:12:17;;;;;;;3.33;2.08;;;;;;;10.12;77.50;97736.38;4500949;31;20096;-76
2021/12/25 11:14:49;;;;;;;1.75;1.30;;;;;;;10.04;78.04;97729.31;4501212;31;20450;-76
2021/12/25 11:17:27;;;;;;;3.35;2.37;;;;;;;10.02;77.27;97728.69;4500874;31;20081;-76
2021/12/25 11:20:00;;;;;;;3.28;1.95;;;;;;;10.13;77.63;97720.50;4501143;31;20091;-76
2021/12/25 11:22:51;;;;;;;7.05;2.78;;;;;;;10.03;78.49;97717.22;4501057;31;20106;-76
2021/12/25 11:25:21;;;;;;;2.92;2.08;;;;;;;10.01;77.95;97708.72;4501139;31;20122;-76
2021/12/25 11:27:49;;;;;;;4.35;2.65;;;;;;;10.19;77.66;97702.53;4501132;31;20123;-76
2021/12/25 11:30:18;;;;;;;2.28;1.67;;;;;;;10.33;77.30;97696.69;4501204;31;20100;-76
2021/12/25 11:32:47;;;;;;;4.55;2.10;;;;;;;10.34;76.17;97697.50;4501050;31;20114;-76
2021/12/25 11:35:16;;;;;;;4.65;2.75;;;;;;;10.36;76.16;97699.00;4500947;31;20088;-76
2021/12/25 11:37:43;;;;;;;4.50;2.20;;;;;;;10.47;76.20;97680.34;4500762;31;20118;-76
2021/12/25 11:40:12;;;;;;;3.35;2.10;;;;;;;10.41;75.18;97678.38;4501153;31;20516;-76
2021/12/25 11:42:48;;;;;;;5.80;2.70;;;;;;;10.47;75.56;97669.84;4499770;31;20096;-76
2021/12/25 11:45:26;;;;;;;5.53;3.08;;;;;;;10.33;75.72;97674.91;4501049;31;20398;-76
2021/12/25 11:47:56;;;;;;;3.15;2.05;;;;;;;10.29;76.58;97670.00;4501033;31;20579;-76
2021/12/25 11:50:32;;;;;;;4.25;2.35;;;;;;;10.46;75.26;97670.03;4500985;31;20130;-76
2021/12/25 11:53:44;;;;;;;5.47;2.20;;;;;;;10.48;75.15;97668.06;4500918;31;20079;-76
2021/12/25 11:58:55;;;;;;;3.67;2.15;;;;;;;10.61;74.64;97662.34;4500986;31;20092;-76
2021/12/25 12:01:26;;;;;;;5.32;2.60;;;;;;;10.67;74.81;97659.03;4499465;31;20160;-76
2021/12/25 12:04:17;;;;;;;3.95;2.30;;;;;;;10.80;74.16;97664.59;4500824;31;20120;-76
2021/12/25 12:06:46;;;;;;;4.47;2.58;;;;;;;10.92;73.66;97657.22;4500673;31;20080;-76
2021/12/25 12:09:16;;;;;;;3.35;2.00;;;;;;;10.88;73.52;97665.59;4500998;31;20163;-76
2021/12/25 12:12:09;;;;;;;4.18;2.60;;;;;;;10.94;73.43;97667.53;4500874;31;20117;-76
2021/12/25 12:14:39;;;;;;;4.43;2.75;;;;;;;11.06;73.29;97663.56;4500711;31;20095;-76
2021/12/25 12:17:24;;;;;;;4.62;2.45;;;;;;;10.98;73.11;97664.41;4499528;31;20108;-76
2021/12/25 12:19:54;;;;;;;5.62;2.83;;;;;;;11.03;73.27;97663.91;4500575;31;20088;-76
2021/12/25 12:27:33;;;;;;;3.65;2.53;;;;;;;11.01;74.29;97673.75;4500302;31;20076;-76
2021/12/25 12:30:02;;;;;;;3.47;1.90;;;;;;;10.90;73.93;97667.06;4499072;31;20115;-76
2021/12/25 12:32:43;;;;;;;3.87;2.10;;;;;;;10.81;74.78;97670.69;4500381;31;20134;-76
2021/12/25 12:35:33;;;;;;;3.40;2.00;;;;;;;10.67;75.11;97666.09;4500241;31;20091;-76
2021/12/25 12:38:36;;;;;;;3.15;2.25;;;;;;;10.64;75.50;97659.38;4500164;31;20179;-76
2021/12/25 12:41:32;;;;;;;3.08;2.10;;;;;;;10.62;75.69;97658.75;4500329;31;20127;-76
2021/12/25 12:43:59;;;;;;;4.35;3.08;;;;;;;10.57;75.97;97656.62;4500060;31;20446;-76
2021/12/25 12:46:50;;;;;;;6.97;3.95;;;;;;;10.60;76.63;97661.53;4500267;31;20443;-76
2021/12/25 12:49:19;;;;;;;5.80;3.53;;;;;;;10.59;76.76;97665.12;4500110;31;20512;-76
2021/12/25 12:51:50;;;;;;;6.37;3.83;;;;;;;10.55;77.42;97668.22;4500080;31;20119;-76
2021/12/25 12:54:42;;;;;;;5.87;3.97;;;;;;;10.53;77.53;97671.00;4498800;31;20100;-76
2021/12/25 12:57:09;;;;;;;5.70;3.60;;;;;;;10.56;77.56;97672.50;4499862;31;20095;-76
2021/12/25 12:59:56;;;;;;;5.60;3.60;;;;;;;10.54;77.34;97674.47;4499896;31;20118;-76
2021/12/25 13:02:26;;;;;;;5.40;2.92;;;;;;;10.51;76.68;97670.38;4499979;31;20080;-76
2021/12/25 13:04:58;;;;;;;5.22;3.28;;;;;;;10.36;76.34;97670.19;4499853;31;20080;-76
2021/12/25 13:07:28;;;;;;;5.97;3.40;;;;;;;10.22;77.07;97676.87;4499927;31;20075;-76
2021/12/25 13:13:22;;;;;;;5.03;2.87;;;;;;;10.20;77.64;97667.53;4465722;32;20139;-76
2021/12/25 13:16:11;;;;;;;6.07;2.83;;;;;;;10.28;77.45;97657.09;4465846;32;20117;-76
2021/12/25 13:18:42;;;;;;;4.85;3.10;;;;;;;10.27;77.25;97645.78;4465838;32;20085;-76
2021/12/25 13:21:22;;;;;;;5.50;3.62;;;;;;;10.27;77.24;97645.78;4465834;32;20534;-76
2021/12/25 13:23:54;;;;;;;7.90;4.50;;;;;;;10.27;77.21;97643.16;4465755;32;20391;-76
2021/12/25 13:26:32;;;;;;;6.87;5.03;;;;;;;10.16;77.49;97647.88;4465863;32;20109;-76
2021/12/25 13:29:01;;;;;;;8.93;5.60;;;;;;;10.11;78.37;97657.06;4465666;32;20116;-76
2021/12/25 13:31:31;;;;;;;10.32;7.05;;;;;;;9.97;78.89;97655.06;4465589;32;20100;-76
2021/12/25 13:34:07;;;;;;;13.05;8.10;;;;;;;9.76;80.22;97653.72;4465279;32;20426;-76